createdAt,value
2023-08-25T00:00:18.113Z,5.68
2023-08-25T00:02:44.581Z,5.46
2023-08-25T00:05:11.045Z,5.04
2023-08-25T00:07:37.592Z,5.12
2023-08-25T00:10:04.052Z,5.47
2023-08-25T00:12:30.497Z,5.38
2023-08-25T00:14:56.930Z,5.33
2023-08-25T00:17:23.345Z,4.96
2023-08-25T00:19:49.788Z,5.32
2023-08-25T00:22:16.212Z,5.34
2023-08-25T00:24:42.690Z,5.38
2023-08-25T00:27:09.130Z,5.32
2023-08-25T00:29:35.583Z,5.33
2023-08-25T00:32:02.033Z,5.09
2023-08-25T00:34:28.479Z,5.25
2023-08-25T00:36:54.904Z,5.35
2023-08-25T00:39:21.327Z,5.47
2023-08-25T00:41:47.797Z,5.62
2023-08-25T00:44:14.262Z,5.31
2023-08-25T00:46:40.757Z,5.64
2023-08-25T00:49:07.191Z,5.45
2023-08-25T00:51:33.623Z,5.30
2023-08-25T00:54:00.060Z,5.35
2023-08-25T00:56:26.496Z,4.95
2023-08-25T00:58:52.908Z,5.20
2023-08-25T01:01:19.427Z,5.01
2023-08-25T01:03:45.997Z,5.11
2023-08-25T01:06:12.418Z,5.38
2023-08-25T01:08:38.862Z,5.24
2023-08-25T01:11:05.379Z,5.30
2023-08-25T01:13:31.938Z,5.38
2023-08-25T01:15:58.373Z,5.19
2023-08-25T01:18:24.869Z,5.22
2023-08-25T01:20:51.300Z,5.22
2023-08-25T01:23:17.732Z,5.31
2023-08-25T01:25:44.159Z,4.99
2023-08-25T01:28:10.632Z,5.18
2023-08-25T01:30:37.131Z,5.15
2023-08-25T01:33:03.590Z,5.16
2023-08-25T01:35:30.049Z,5.48
2023-08-25T01:37:56.468Z,5.18
2023-08-25T01:40:22.885Z,5.17
2023-08-25T01:42:49.320Z,4.94
2023-08-25T01:45:15.762Z,4.90
2023-08-25T01:47:42.226Z,4.72
2023-08-25T01:50:08.708Z,4.67
2023-08-25T01:52:35.170Z,4.81
2023-08-25T01:55:01.622Z,4.93
2023-08-25T01:57:28.037Z,5.11
2023-08-25T01:59:54.485Z,4.54
2023-08-25T02:02:20.959Z,4.93
2023-08-25T02:04:47.397Z,4.91
2023-08-25T02:07:13.843Z,4.69
2023-08-25T02:09:40.257Z,4.93
2023-08-25T02:12:06.705Z,5.12
2023-08-25T02:14:33.127Z,4.93
2023-08-25T02:16:59.578Z,4.93
2023-08-25T02:19:25.999Z,4.87
2023-08-25T02:21:52.491Z,5.13
2023-08-25T02:24:18.939Z,5.41
2023-08-25T02:26:45.374Z,5.33
2023-08-25T02:29:11.828Z,5.20
2023-08-25T02:31:38.310Z,5.30
2023-08-25T02:34:04.775Z,4.62
2023-08-25T02:36:31.246Z,5.03
2023-08-25T02:38:57.679Z,5.21
2023-08-25T02:41:24.115Z,5.20
2023-08-25T02:43:50.552Z,5.24
2023-08-25T02:46:17.034Z,5.12
2023-08-25T02:48:43.508Z,5.20
2023-08-25T02:51:09.965Z,5.11
2023-08-25T02:53:36.385Z,5.03
2023-08-25T02:56:02.829Z,5.04
2023-08-25T02:58:29.289Z,5.07
2023-08-25T03:00:55.696Z,5.04
2023-08-25T03:03:22.198Z,5.21
2023-08-25T03:05:48.686Z,5.12
2023-08-25T03:08:15.097Z,5.18
2023-08-25T03:10:41.553Z,5.22
2023-08-25T03:13:09.059Z,5.17
2023-08-25T03:15:35.600Z,5.22
2023-08-25T03:18:02.097Z,5.34
2023-08-25T03:20:28.537Z,5.46
2023-08-25T03:22:55.000Z,5.13
2023-08-25T03:25:21.421Z,5.09
2023-08-25T03:27:47.912Z,5.48
2023-08-25T03:30:14.358Z,5.28
2023-08-25T03:32:40.845Z,5.24
2023-08-25T03:35:07.385Z,5.19
2023-08-25T03:37:33.821Z,5.37
2023-08-25T03:40:00.278Z,5.08
2023-08-25T03:42:26.728Z,5.23
2023-08-25T03:44:53.183Z,5.33
2023-08-25T03:47:19.588Z,5.03
2023-08-25T03:49:46.089Z,5.32
2023-08-25T03:52:12.524Z,5.62
2023-08-25T03:54:39.022Z,5.29
2023-08-25T03:57:05.480Z,5.71
2023-08-25T03:59:31.909Z,5.40
2023-08-25T04:01:58.344Z,5.62
2023-08-25T04:04:24.778Z,5.15
2023-08-25T04:06:51.232Z,5.12
2023-08-25T04:09:17.679Z,5.43
2023-08-25T04:11:44.113Z,5.64
2023-08-25T04:14:10.554Z,5.55
2023-08-25T04:16:37.024Z,5.48
2023-08-25T04:19:03.552Z,5.73
2023-08-25T04:21:30.006Z,6.06
2023-08-25T04:23:56.472Z,5.88
2023-08-25T04:26:22.896Z,5.64
2023-08-25T04:28:49.332Z,5.33
2023-08-25T04:31:15.786Z,5.94
2023-08-25T04:33:43.135Z,5.70
2023-08-25T04:36:09.714Z,5.91
2023-08-25T04:38:36.200Z,5.70
2023-08-25T04:41:02.634Z,5.80
2023-08-25T04:43:29.109Z,5.65
2023-08-25T04:45:55.556Z,5.61
2023-08-25T04:48:21.991Z,6.73
2023-08-25T04:50:48.433Z,5.83
2023-08-25T04:53:14.850Z,5.80
2023-08-25T04:55:41.290Z,5.57
2023-08-25T04:58:07.701Z,5.67
2023-08-25T05:00:34.209Z,6.28
2023-08-25T05:03:00.780Z,6.25
2023-08-25T05:05:27.282Z,5.57
2023-08-25T05:07:53.869Z,6.17
2023-08-25T05:10:20.527Z,7.53
2023-08-25T05:12:46.956Z,6.83
2023-08-25T05:15:13.373Z,5.76
2023-08-25T05:17:39.819Z,5.83
2023-08-25T05:20:06.239Z,5.83
2023-08-25T05:22:32.716Z,5.60
2023-08-25T05:25:00.305Z,6.10
2023-08-25T05:27:26.739Z,6.14
2023-08-25T05:29:53.157Z,5.98
2023-08-25T05:32:19.645Z,6.12
2023-08-25T05:34:46.066Z,5.62
2023-08-25T05:37:12.546Z,5.49
2023-08-25T05:39:38.995Z,5.21
2023-08-25T05:42:05.421Z,5.62
2023-08-25T05:44:31.863Z,5.38
2023-08-25T05:46:58.310Z,5.38
2023-08-25T05:49:24.783Z,5.38
2023-08-25T05:51:51.204Z,5.48
2023-08-25T05:54:17.635Z,5.46
2023-08-25T05:56:44.124Z,5.05
2023-08-25T05:59:10.558Z,5.43
2023-08-25T06:01:37.095Z,5.04
2023-08-25T06:04:03.620Z,5.09
2023-08-25T06:06:30.070Z,5.19
2023-08-25T06:08:56.561Z,5.38
2023-08-25T06:11:23.001Z,4.87
2023-08-25T06:13:49.424Z,5.12
2023-08-25T06:16:15.894Z,5.11
2023-08-25T06:18:42.387Z,5.38
2023-08-25T06:21:08.830Z,5.58
2023-08-25T06:23:35.306Z,5.53
2023-08-25T06:26:01.739Z,5.63
2023-08-25T06:28:28.159Z,6.15
2023-08-25T06:30:54.620Z,5.88
2023-08-25T06:33:21.043Z,5.98
2023-08-25T06:35:47.462Z,6.33
2023-08-25T06:38:13.918Z,6.46
2023-08-25T06:40:40.421Z,6.47
2023-08-25T06:43:06.925Z,6.34
2023-08-25T06:45:33.392Z,6.25
2023-08-25T06:47:59.901Z,6.36
2023-08-25T06:50:26.422Z,6.48
2023-08-25T06:52:52.852Z,6.54
2023-08-25T06:55:19.316Z,6.62
2023-08-25T06:57:45.799Z,6.54
2023-08-25T07:00:12.228Z,6.55
2023-08-25T07:02:38.652Z,6.64
2023-08-25T07:05:05.103Z,6.39
2023-08-25T07:07:31.543Z,6.53
2023-08-25T07:09:57.992Z,6.53
2023-08-25T07:12:24.427Z,6.69
2023-08-25T07:14:50.859Z,6.42
2023-08-25T07:17:17.311Z,6.37
2023-08-25T07:19:43.747Z,6.07
2023-08-25T07:22:10.185Z,6.44
2023-08-25T07:24:36.655Z,5.89
2023-08-25T07:27:03.077Z,6.37
2023-08-25T07:29:29.512Z,6.38
2023-08-25T07:31:55.944Z,6.32
2023-08-25T07:34:22.363Z,6.76
2023-08-25T07:36:48.805Z,6.52
2023-08-25T07:39:15.260Z,6.39
2023-08-25T07:41:41.699Z,6.31
2023-08-25T07:44:08.139Z,6.30
2023-08-25T07:46:34.638Z,6.71
2023-08-25T07:49:01.096Z,6.77
2023-08-25T07:51:39.648Z,6.46
2023-08-25T07:54:07.316Z,6.57
2023-08-25T07:56:33.749Z,6.54
2023-08-25T07:59:00.237Z,6.69
2023-08-25T08:01:26.708Z,6.74
2023-08-25T08:03:53.222Z,6.76
2023-08-25T08:06:19.688Z,6.78
2023-08-25T08:08:46.168Z,6.98
2023-08-25T08:11:12.608Z,6.96
2023-08-25T08:13:39.112Z,6.64
2023-08-25T08:16:05.537Z,6.79
2023-08-25T08:18:32.005Z,6.74
2023-08-25T08:20:58.425Z,6.92
2023-08-25T08:23:24.844Z,6.88
2023-08-25T08:25:51.300Z,6.95
2023-08-25T08:28:17.724Z,7.06
2023-08-25T08:30:45.366Z,6.89
2023-08-25T08:33:12.949Z,7.12
2023-08-25T08:35:39.385Z,7.07
2023-08-25T08:38:05.831Z,6.81
2023-08-25T08:40:32.276Z,6.68
2023-08-25T08:42:58.759Z,6.73
2023-08-25T08:45:25.199Z,7.00
2023-08-25T08:47:51.913Z,6.76
2023-08-25T08:50:18.579Z,6.96
2023-08-25T08:52:44.985Z,6.59
2023-08-25T08:55:11.441Z,6.76
2023-08-25T08:57:37.881Z,6.91
2023-08-25T09:00:04.379Z,6.82
2023-08-25T09:02:30.845Z,6.83
2023-08-25T09:04:57.364Z,7.36
2023-08-25T09:07:25.941Z,7.13
2023-08-25T09:09:52.393Z,6.95
2023-08-25T09:12:18.844Z,6.89
2023-08-25T09:14:45.344Z,7.38
2023-08-25T09:17:11.802Z,7.14
2023-08-25T09:19:38.249Z,6.94
2023-08-25T09:22:04.690Z,6.80
2023-08-25T09:24:31.125Z,6.98
2023-08-25T09:26:57.544Z,6.77
2023-08-25T09:29:24.001Z,7.16
2023-08-25T09:31:50.430Z,6.33
2023-08-25T09:34:16.925Z,6.70
2023-08-25T09:36:43.341Z,6.39
2023-08-25T09:39:09.787Z,6.42
2023-08-25T09:41:36.329Z,6.73
2023-08-25T09:44:02.919Z,6.59
2023-08-25T09:46:29.363Z,6.89
2023-08-25T09:48:55.858Z,6.89
2023-08-25T09:51:22.327Z,6.98
2023-08-25T09:53:48.781Z,6.31
2023-08-25T09:56:18.212Z,5.50
2023-08-25T09:58:46.160Z,4.60
2023-08-25T10:01:12.628Z,4.54
2023-08-25T10:03:39.123Z,4.17
2023-08-25T10:06:05.564Z,4.21
2023-08-25T10:08:32.077Z,3.86
2023-08-25T10:10:58.521Z,3.55
2023-08-25T10:13:24.970Z,3.56
2023-08-25T10:15:51.426Z,4.18
2023-08-25T10:18:18.006Z,4.03
2023-08-25T10:20:44.553Z,4.15
2023-08-25T10:23:11.010Z,3.72
2023-08-25T10:25:37.439Z,3.92
2023-08-25T10:28:03.874Z,3.77
2023-08-25T10:30:30.307Z,4.26
2023-08-25T10:32:56.790Z,4.04
2023-08-25T10:35:23.274Z,4.32
2023-08-25T10:37:49.726Z,4.18
2023-08-25T10:40:16.193Z,4.32
2023-08-25T10:42:42.613Z,4.01
2023-08-25T10:45:09.076Z,3.90
2023-08-25T10:47:35.602Z,3.97
2023-08-25T10:50:02.198Z,4.19
2023-08-25T10:52:28.615Z,3.89
2023-08-25T10:54:55.074Z,3.74
2023-08-25T10:57:21.570Z,3.73
2023-08-25T10:59:49.374Z,3.59
2023-08-25T11:02:15.815Z,3.64
2023-08-25T11:04:42.407Z,3.90
2023-08-25T11:07:08.950Z,3.34
2023-08-25T11:09:35.693Z,3.64
2023-08-25T11:12:02.145Z,4.14
2023-08-25T11:14:28.629Z,3.94
2023-08-25T11:16:55.066Z,4.07
2023-08-25T11:19:21.513Z,3.82
2023-08-25T11:21:49.598Z,4.09
2023-08-25T11:24:17.313Z,4.01
2023-08-25T11:26:43.788Z,4.36
2023-08-25T11:29:10.285Z,4.53
2023-08-25T11:31:36.724Z,4.38
2023-08-25T11:34:03.177Z,4.01
2023-08-25T11:36:29.614Z,4.10
2023-08-25T11:38:56.046Z,4.06
2023-08-25T11:41:22.464Z,4.51
2023-08-25T11:43:48.909Z,4.39
2023-08-25T11:46:15.396Z,4.46
2023-08-25T11:48:41.965Z,4.48
2023-08-25T11:51:08.407Z,4.49
2023-08-25T11:53:34.843Z,4.53
2023-08-25T11:56:01.453Z,4.90
2023-08-25T11:58:27.911Z,4.82
2023-08-25T12:00:54.429Z,4.95
2023-08-25T12:03:20.966Z,4.90
2023-08-25T12:05:47.445Z,4.97
2023-08-25T12:08:13.856Z,5.04
2023-08-25T12:10:40.505Z,4.88
2023-08-25T12:13:07.125Z,4.96
2023-08-25T12:15:33.606Z,4.99
2023-08-25T12:18:00.183Z,5.07
2023-08-25T12:20:26.754Z,5.07
2023-08-25T12:22:53.180Z,4.95
2023-08-25T12:25:19.607Z,5.26
2023-08-25T12:27:46.033Z,5.40
2023-08-25T12:30:12.491Z,5.08
2023-08-25T12:32:39.037Z,5.10
2023-08-25T12:35:05.492Z,5.24
2023-08-25T12:37:31.902Z,5.15
2023-08-25T12:39:58.299Z,5.37
2023-08-25T12:42:24.726Z,5.26
2023-08-25T12:44:51.206Z,5.48
2023-08-25T12:47:17.664Z,5.50
2023-08-25T12:49:44.078Z,5.46
2023-08-25T12:52:10.554Z,5.43
2023-08-25T12:54:36.996Z,5.47
2023-08-25T12:57:03.431Z,5.46
2023-08-25T12:59:29.900Z,5.44
2023-08-25T13:01:56.323Z,5.51
2023-08-25T13:04:22.757Z,5.22
2023-08-25T13:06:49.170Z,5.38
2023-08-25T13:09:15.657Z,5.28
2023-08-25T13:11:42.151Z,5.29
2023-08-25T13:14:08.611Z,5.47
2023-08-25T13:16:35.067Z,5.49
2023-08-25T13:19:01.513Z,5.42
2023-08-25T13:21:27.941Z,5.39
2023-08-25T13:24:07.913Z,5.47
2023-08-25T13:26:35.928Z,5.01
2023-08-25T13:29:02.384Z,5.23
2023-08-25T13:31:29.205Z,5.17
2023-08-25T13:33:56.189Z,5.55
2023-08-25T13:36:23.299Z,5.42
2023-08-25T13:38:49.789Z,5.76
2023-08-25T13:41:16.201Z,5.59
2023-08-25T13:43:42.673Z,5.52
2023-08-25T13:46:09.152Z,5.32
2023-08-25T13:48:35.612Z,5.18
2023-08-25T13:51:02.049Z,5.30
2023-08-25T13:53:28.477Z,4.73
2023-08-25T13:55:55.380Z,4.80
2023-08-25T13:58:22.290Z,4.65
2023-08-25T14:00:48.707Z,4.75
2023-08-25T14:03:15.292Z,4.39
2023-08-25T14:05:41.846Z,4.25
2023-08-25T14:08:08.313Z,4.01
2023-08-25T14:10:34.747Z,3.86
2023-08-25T14:13:01.191Z,4.00
2023-08-25T14:15:27.617Z,4.26
2023-08-25T14:17:54.283Z,4.17
2023-08-25T14:20:21.033Z,4.19
2023-08-25T14:22:47.584Z,3.95
2023-08-25T14:25:13.999Z,3.92
2023-08-25T14:27:40.421Z,3.81
2023-08-25T14:30:06.851Z,4.34
2023-08-25T14:32:33.281Z,5.38
2023-08-25T14:34:59.730Z,5.47
2023-08-25T14:37:26.145Z,5.72
2023-08-25T14:39:52.572Z,5.31
2023-08-25T14:42:19.017Z,5.34
2023-08-25T14:44:45.440Z,5.40
2023-08-25T14:47:11.880Z,5.77
2023-08-25T14:49:38.397Z,5.10
2023-08-25T14:52:04.963Z,5.26
2023-08-25T14:54:31.395Z,5.27
2023-08-25T14:56:57.846Z,5.34
2023-08-25T14:59:26.567Z,5.76
2023-08-25T15:01:54.110Z,5.45
2023-08-25T15:04:20.542Z,5.87
2023-08-25T15:06:46.986Z,5.81
2023-08-25T15:09:13.405Z,5.95
2023-08-25T15:11:39.845Z,5.55
2023-08-25T15:14:06.276Z,5.27
2023-08-25T15:16:32.706Z,5.37
2023-08-25T15:18:59.151Z,5.11
2023-08-25T15:21:25.618Z,5.39
2023-08-25T15:23:52.044Z,5.18
2023-08-25T15:26:18.458Z,5.74
2023-08-25T15:28:44.980Z,5.27
2023-08-25T15:31:11.571Z,4.58
2023-08-25T15:33:38.132Z,4.34
2023-08-25T15:36:04.569Z,4.42
2023-08-25T15:38:31.003Z,4.26
2023-08-25T15:40:57.436Z,4.13
2023-08-25T15:43:23.854Z,4.14
2023-08-25T15:45:50.315Z,3.87
2023-08-25T15:48:16.759Z,4.28
2023-08-25T15:50:43.185Z,3.96
2023-08-25T15:53:09.637Z,4.43
2023-08-25T15:55:36.088Z,4.47
2023-08-25T15:58:02.517Z,4.41
2023-08-25T16:00:28.936Z,4.34
2023-08-25T16:02:55.618Z,4.46
2023-08-25T16:05:22.351Z,4.71
2023-08-25T16:07:48.822Z,4.87
2023-08-25T16:10:15.363Z,4.89
2023-08-25T16:12:41.850Z,4.77
2023-08-25T16:15:08.277Z,4.49
2023-08-25T16:17:34.719Z,5.06
2023-08-25T16:20:01.293Z,4.74
2023-08-25T16:22:27.744Z,4.67
2023-08-25T16:24:54.817Z,4.68
2023-08-25T16:27:21.269Z,4.77
2023-08-25T16:29:47.742Z,4.54
2023-08-25T16:32:14.153Z,4.82
2023-08-25T16:34:40.624Z,4.76
2023-08-25T16:37:07.063Z,4.40
2023-08-25T16:39:33.509Z,4.49
2023-08-25T16:41:59.965Z,4.78
2023-08-25T16:44:26.398Z,4.53
2023-08-25T16:46:52.872Z,4.59
2023-08-25T16:49:19.396Z,4.34
2023-08-25T16:51:45.841Z,4.67
2023-08-25T16:54:12.274Z,4.90
2023-08-25T16:56:38.832Z,4.63
2023-08-25T16:59:05.277Z,4.56
2023-08-25T17:01:31.750Z,4.63
2023-08-25T17:03:58.398Z,4.80
2023-08-25T17:06:24.916Z,4.80
2023-08-25T17:08:51.375Z,4.53
2023-08-25T17:11:17.854Z,5.18
2023-08-25T17:13:44.274Z,5.01
2023-08-25T17:16:10.789Z,5.54
2023-08-25T17:18:37.348Z,5.36
2023-08-25T17:21:03.789Z,4.92
2023-08-25T17:23:30.257Z,4.97
2023-08-25T17:25:56.704Z,5.01
2023-08-25T17:28:23.141Z,5.34
2023-08-25T17:30:49.655Z,5.11
2023-08-25T17:33:16.126Z,4.94
2023-08-25T17:35:42.550Z,5.39
2023-08-25T17:38:08.952Z,5.06
2023-08-25T17:40:35.411Z,5.21
2023-08-25T17:43:01.824Z,4.93
2023-08-25T17:45:28.270Z,5.01
2023-08-25T17:47:54.754Z,5.13
2023-08-25T17:50:21.284Z,5.71
2023-08-25T17:52:47.767Z,4.96
2023-08-25T17:55:15.932Z,5.21
2023-08-25T17:57:43.523Z,5.51
2023-08-25T18:00:09.966Z,5.54
2023-08-25T18:02:36.470Z,5.00
2023-08-25T18:05:02.923Z,4.86
2023-08-25T18:07:29.442Z,5.38
2023-08-25T18:09:55.847Z,5.29
2023-08-25T18:12:22.327Z,5.58
2023-08-25T18:14:48.816Z,6.12
2023-08-25T18:17:15.238Z,6.10
2023-08-25T18:19:41.666Z,5.86
2023-08-25T18:22:08.150Z,5.93
2023-08-25T18:24:34.579Z,6.03
2023-08-25T18:27:01.013Z,6.32
2023-08-25T18:29:27.487Z,6.23
2023-08-25T18:31:53.989Z,6.21
2023-08-25T18:34:20.467Z,6.09
2023-08-25T18:36:46.938Z,6.01
2023-08-25T18:39:13.392Z,6.21
2023-08-25T18:41:39.816Z,6.59
2023-08-25T18:44:06.257Z,5.97
2023-08-25T18:46:32.688Z,6.20
2023-08-25T18:48:59.128Z,6.63
2023-08-25T18:51:27.049Z,7.66
2023-08-25T18:53:53.628Z,7.06
2023-08-25T18:56:20.123Z,6.57
2023-08-25T18:58:46.558Z,6.24
2023-08-25T19:01:13.113Z,5.92
2023-08-25T19:03:39.645Z,6.28
2023-08-25T19:06:06.177Z,6.25
2023-08-25T19:08:32.661Z,6.71
2023-08-25T19:10:59.167Z,6.21
2023-08-25T19:13:25.623Z,6.08
2023-08-25T19:15:52.110Z,6.21
2023-08-25T19:18:18.599Z,6.26
2023-08-25T19:20:45.086Z,5.73
2023-08-25T19:23:11.549Z,6.07
2023-08-25T19:25:38.018Z,6.02
2023-08-25T19:28:04.551Z,6.21
2023-08-25T19:30:31.005Z,6.97
2023-08-25T19:32:58.034Z,7.57
2023-08-25T19:35:24.811Z,7.77
2023-08-25T19:37:51.329Z,7.44
2023-08-25T19:40:17.904Z,6.63
2023-08-25T19:42:44.441Z,7.00
2023-08-25T19:45:10.911Z,6.79
2023-08-25T19:47:37.420Z,6.48
2023-08-25T19:50:03.931Z,6.37
2023-08-25T19:52:30.413Z,6.06
2023-08-25T19:54:56.924Z,6.21
2023-08-25T19:57:23.436Z,5.78
2023-08-25T19:59:49.914Z,5.50
2023-08-25T20:02:16.443Z,5.41
2023-08-25T20:04:42.972Z,5.56
2023-08-25T20:07:09.404Z,5.64
2023-08-25T20:09:35.921Z,5.38
2023-08-25T20:12:02.384Z,5.40
2023-08-25T20:14:28.813Z,5.67
2023-08-25T20:16:55.392Z,5.49
2023-08-25T20:19:21.843Z,5.73
2023-08-25T20:21:48.291Z,5.73
2023-08-25T20:24:14.783Z,5.97
2023-08-25T20:26:41.256Z,6.03
2023-08-25T20:29:07.704Z,6.45
2023-08-25T20:31:34.202Z,6.13
2023-08-25T20:34:00.629Z,6.08
2023-08-25T20:36:27.086Z,5.93
2023-08-25T20:38:53.727Z,6.26
2023-08-25T20:41:20.211Z,6.17
2023-08-25T20:43:46.633Z,6.23
2023-08-25T20:46:13.135Z,5.98
2023-08-25T20:48:39.658Z,6.24
2023-08-25T20:51:06.108Z,6.42
2023-08-25T20:53:32.560Z,7.34
2023-08-25T20:55:58.985Z,7.47
2023-08-25T20:58:25.459Z,7.37
2023-08-25T21:00:51.907Z,7.30
2023-08-25T21:03:18.592Z,5.99
2023-08-25T21:05:45.255Z,6.39
2023-08-25T21:08:11.705Z,5.91
2023-08-25T21:10:38.138Z,6.02
2023-08-25T21:13:04.651Z,5.97
2023-08-25T21:15:31.090Z,6.10
2023-08-25T21:17:57.603Z,6.18
2023-08-25T21:20:26.149Z,6.18
2023-08-25T21:22:54.172Z,6.22
2023-08-25T21:25:20.872Z,6.17
2023-08-25T21:27:47.360Z,6.23
2023-08-25T21:30:13.846Z,6.38
2023-08-25T21:32:40.360Z,6.27
2023-08-25T21:35:06.807Z,6.49
2023-08-25T21:37:33.270Z,8.29
2023-08-25T21:39:59.677Z,7.61
2023-08-25T21:42:26.118Z,6.44
2023-08-25T21:44:52.533Z,6.25
2023-08-25T21:47:19.003Z,6.19
2023-08-25T21:49:45.427Z,6.42
2023-08-25T21:52:11.883Z,6.37
2023-08-25T21:54:38.350Z,6.89
2023-08-25T21:57:04.867Z,6.55
2023-08-25T21:59:31.336Z,6.56
2023-08-25T22:01:57.795Z,6.43
2023-08-25T22:04:24.297Z,6.43
2023-08-25T22:06:50.807Z,7.03
2023-08-25T22:09:17.233Z,6.53
2023-08-25T22:11:43.657Z,6.81
2023-08-25T22:14:10.126Z,6.87
2023-08-25T22:16:36.552Z,7.11
2023-08-25T22:19:02.986Z,6.70
2023-08-25T22:21:29.437Z,6.56
2023-08-25T22:23:55.879Z,6.90
2023-08-25T22:26:22.356Z,6.68
2023-08-25T22:28:48.789Z,6.56
2023-08-25T22:31:15.263Z,6.79
2023-08-25T22:36:11.017Z,6.65
2023-08-25T22:38:37.438Z,6.83
2023-08-25T22:41:03.945Z,6.29
2023-08-25T22:43:30.368Z,6.36
2023-08-25T22:45:56.824Z,5.89
2023-08-25T22:48:23.273Z,5.87
2023-08-25T22:50:52.144Z,5.90
2023-08-25T22:53:18.584Z,6.14
2023-08-25T22:55:45.051Z,5.20
2023-08-25T22:58:11.526Z,5.85
2023-08-25T23:00:38.101Z,5.88
2023-08-25T23:03:04.692Z,5.45
2023-08-25T23:05:31.184Z,5.59
2023-08-25T23:07:57.775Z,5.29
2023-08-25T23:10:24.395Z,5.12
2023-08-25T23:12:50.839Z,5.39
2023-08-25T23:15:17.253Z,5.28
2023-08-25T23:17:43.732Z,5.51
2023-08-25T23:20:10.171Z,5.17
2023-08-25T23:22:36.624Z,5.02
2023-08-25T23:25:03.094Z,5.10
2023-08-25T23:27:29.520Z,5.21
2023-08-25T23:29:55.962Z,4.94
2023-08-25T23:32:22.420Z,5.44
2023-08-25T23:34:48.887Z,5.10
2023-08-25T23:37:15.327Z,5.13
2023-08-25T23:39:41.780Z,5.12
2023-08-25T23:42:08.207Z,5.40
2023-08-25T23:44:34.642Z,5.22
2023-08-25T23:47:01.057Z,5.22
2023-08-25T23:49:27.492Z,5.09
2023-08-25T23:51:53.924Z,5.37
2023-08-25T23:54:20.389Z,5.27
2023-08-25T23:56:46.826Z,4.83
2023-08-25T23:59:13.363Z,5.13
